createdAt,value
2023-04-10T00:02:25.188Z,13.37
2023-04-10T00:04:52.655Z,12.60
2023-04-10T00:07:19.914Z,13.03
2023-04-10T00:09:47.053Z,12.90
2023-04-10T00:12:15.550Z,12.80
2023-04-10T00:14:42.915Z,12.77
2023-04-10T00:17:10.325Z,14.07
2023-04-10T00:19:37.518Z,14.13
2023-04-10T00:22:04.995Z,13.80
2023-04-10T00:24:32.187Z,14.83
2023-04-10T00:26:59.378Z,14.07
2023-04-10T00:29:26.625Z,14.40
2023-04-10T00:31:53.872Z,13.90
2023-04-10T00:34:21.114Z,14.27
2023-04-10T00:36:48.314Z,14.33
2023-04-10T00:39:15.540Z,14.73
2023-04-10T00:41:42.775Z,15.40
2023-04-10T00:44:09.931Z,13.50
2023-04-10T00:46:38.522Z,14.37
2023-04-10T00:49:06.443Z,14.90
2023-04-10T00:51:33.791Z,14.43
2023-04-10T00:54:02.097Z,14.30
2023-04-10T00:56:31.775Z,14.63
2023-04-10T00:58:58.949Z,14.30
2023-04-10T01:01:26.188Z,14.13
2023-04-10T01:03:53.944Z,15.23
2023-04-10T01:06:32.084Z,14.23
2023-04-10T01:09:18.115Z,14.37
2023-04-10T01:11:56.344Z,14.17
2023-04-10T01:14:23.484Z,13.50
2023-04-10T01:17:17.268Z,15.10
2023-04-10T01:20:00.900Z,14.20
2023-04-10T01:22:42.506Z,14.80
2023-04-10T01:25:15.843Z,14.43
2023-04-10T01:27:59.367Z,14.77
2023-04-10T01:30:27.417Z,14.57
2023-04-10T01:32:56.151Z,15.80
2023-04-10T01:35:23.744Z,15.60
2023-04-10T01:37:51.974Z,15.27
2023-04-10T01:40:20.410Z,15.27
2023-04-10T01:42:56.017Z,14.87
2023-04-10T01:45:26.461Z,15.50
2023-04-10T01:47:54.092Z,15.17
2023-04-10T01:50:24.300Z,14.77
2023-04-10T01:52:52.857Z,14.50
2023-04-10T01:55:21.074Z,14.87
2023-04-10T01:57:49.488Z,14.67
2023-04-10T02:00:17.445Z,14.93
2023-04-10T02:02:45.849Z,14.67
2023-04-10T02:05:13.221Z,15.23
2023-04-10T02:07:40.379Z,15.03
2023-04-10T02:10:21.757Z,15.60
2023-04-10T02:12:53.886Z,15.80
2023-04-10T02:15:22.192Z,15.17
2023-04-10T02:17:50.085Z,15.23
2023-04-10T02:20:18.624Z,14.97
2023-04-10T02:22:46.509Z,14.97
2023-04-10T02:25:13.826Z,15.00
2023-04-10T02:27:41.131Z,14.97
2023-04-10T02:30:08.700Z,14.47
2023-04-10T02:32:36.910Z,14.60
2023-04-10T02:35:04.344Z,14.57
2023-04-10T02:37:32.886Z,14.87
2023-04-10T02:40:00.223Z,14.97
2023-04-10T02:42:27.544Z,15.40
2023-04-10T02:44:54.719Z,14.80
2023-04-10T02:47:21.941Z,15.17
2023-04-10T02:49:49.223Z,14.57
2023-04-10T02:52:17.365Z,14.80
2023-04-10T02:54:44.568Z,14.60
2023-04-10T02:57:11.818Z,14.57
2023-04-10T02:59:39.023Z,14.90
2023-04-10T03:02:06.334Z,14.60
2023-04-10T03:04:33.719Z,14.17
2023-04-10T03:07:01.420Z,14.53
2023-04-10T03:09:28.591Z,14.10
2023-04-10T03:11:55.764Z,14.33
2023-04-10T03:14:22.904Z,14.13
2023-04-10T03:16:50.554Z,14.20
2023-04-10T03:19:17.770Z,14.77
2023-04-10T03:21:46.226Z,15.03
2023-04-10T03:24:13.432Z,15.13
2023-04-10T03:26:43.703Z,14.73
2023-04-10T03:29:10.919Z,14.60
2023-04-10T03:31:38.094Z,14.47
2023-04-10T03:34:05.322Z,14.17
2023-04-10T03:36:32.515Z,14.60
2023-04-10T03:38:59.654Z,13.83
2023-04-10T03:41:27.170Z,12.83
2023-04-10T03:43:54.617Z,13.83
2023-04-10T03:46:22.734Z,14.13
2023-04-10T03:48:51.168Z,12.97
2023-04-10T03:51:18.843Z,13.10
2023-04-10T03:53:46.136Z,13.50
2023-04-10T03:56:13.277Z,13.80
2023-04-10T03:58:40.522Z,13.27
2023-04-10T04:01:08.095Z,13.47
2023-04-10T04:03:35.437Z,13.80
2023-04-10T04:06:02.736Z,13.07
2023-04-10T04:08:29.889Z,13.90
2023-04-10T04:10:57.048Z,13.73
2023-04-10T04:13:24.214Z,12.83
2023-04-10T04:15:51.426Z,13.53
2023-04-10T04:18:18.537Z,13.20
2023-04-10T04:20:45.761Z,13.27
2023-04-10T04:23:12.918Z,13.13
2023-04-10T04:25:40.292Z,13.03
2023-04-10T04:28:07.412Z,13.33
2023-04-10T04:30:34.545Z,13.43
2023-04-10T04:33:01.821Z,13.23
2023-04-10T04:35:29.029Z,12.40
2023-04-10T04:37:56.233Z,12.57
2023-04-10T04:40:23.314Z,12.93
2023-04-10T04:42:50.557Z,12.77
2023-04-10T04:45:17.738Z,13.33
2023-04-10T04:47:44.981Z,12.97
2023-04-10T04:50:12.178Z,13.37
2023-04-10T04:52:39.331Z,14.07
2023-04-10T04:55:06.764Z,12.47
2023-04-10T04:57:33.921Z,12.93
2023-04-10T05:00:01.073Z,12.50
2023-04-10T05:02:28.404Z,12.43
2023-04-10T05:04:55.730Z,12.83
2023-04-10T05:07:22.895Z,13.23
2023-04-10T05:09:50.141Z,12.57
2023-04-10T05:12:17.259Z,12.73
2023-04-10T05:14:44.455Z,12.50
2023-04-10T05:17:11.610Z,12.83
2023-04-10T05:19:38.775Z,12.83
2023-04-10T05:22:06.294Z,12.23
2023-04-10T05:24:33.645Z,13.00
2023-04-10T05:27:00.860Z,12.30
2023-04-10T05:29:28.020Z,11.80
2023-04-10T05:31:55.320Z,11.77
2023-04-10T05:34:22.433Z,12.27
2023-04-10T05:36:49.554Z,12.17
2023-04-10T05:39:17.279Z,12.13
2023-04-10T05:41:44.453Z,12.27
2023-04-10T05:44:11.763Z,12.47
2023-04-10T05:46:38.912Z,12.20
2023-04-10T05:49:06.144Z,12.87
2023-04-10T05:51:33.250Z,12.67
2023-04-10T05:54:01.089Z,12.63
2023-04-10T05:56:28.201Z,12.80
2023-04-10T05:58:55.596Z,12.70
2023-04-10T06:01:22.996Z,11.80
2023-04-10T06:03:50.228Z,11.77
2023-04-10T06:06:17.887Z,12.73
2023-04-10T06:08:45.234Z,12.43
2023-04-10T06:11:12.438Z,13.10
2023-04-10T06:13:39.608Z,11.67
2023-04-10T06:16:07.013Z,12.57
2023-04-10T06:18:34.199Z,12.20
2023-04-10T06:21:02.148Z,11.90
2023-04-10T06:23:29.565Z,12.23
2023-04-10T06:25:56.878Z,12.90
2023-04-10T06:28:23.999Z,11.83
2023-04-10T06:30:51.389Z,13.13
2023-04-10T06:33:18.618Z,11.83
2023-04-10T06:35:46.033Z,11.07
2023-04-10T06:38:13.276Z,11.70
2023-04-10T06:40:41.283Z,12.50
2023-04-10T06:43:08.553Z,11.97
2023-04-10T06:45:35.747Z,11.83
2023-04-10T06:48:03.169Z,12.10
2023-04-10T06:50:31.658Z,11.10
2023-04-10T06:53:00.439Z,12.37
2023-04-10T06:55:27.750Z,11.93
2023-04-10T06:57:56.542Z,11.90
2023-04-10T07:00:24.121Z,11.83
2023-04-10T07:02:51.584Z,11.83
2023-04-10T07:05:18.779Z,11.20
2023-04-10T07:07:47.453Z,11.83
2023-04-10T07:10:14.616Z,12.10
2023-04-10T07:12:41.775Z,12.13
2023-04-10T07:15:09.199Z,11.70
2023-04-10T07:17:36.431Z,12.23
2023-04-10T07:20:03.941Z,12.20
2023-04-10T07:22:32.076Z,12.73
2023-04-10T07:24:59.417Z,11.43
2023-04-10T07:27:27.863Z,10.83
2023-04-10T07:29:56.810Z,11.77
2023-04-10T07:32:24.488Z,10.90
2023-04-10T07:34:51.773Z,11.63
2023-04-10T07:37:19.008Z,11.03
2023-04-10T07:39:46.188Z,12.37
2023-04-10T07:42:13.348Z,11.77
2023-04-10T07:44:40.622Z,11.13
2023-04-10T07:47:07.726Z,11.53
2023-04-10T07:49:34.972Z,11.53
2023-04-10T07:52:02.134Z,11.13
2023-04-10T07:54:32.179Z,10.90
2023-04-10T07:56:59.305Z,12.00
2023-04-10T07:59:27.543Z,11.50
2023-04-10T08:01:54.841Z,11.10
2023-04-10T08:04:22.318Z,11.17
2023-04-10T08:06:50.090Z,10.93
2023-04-10T08:09:17.261Z,10.77
2023-04-10T08:11:44.423Z,10.77
2023-04-10T08:14:13.401Z,10.70
2023-04-10T08:16:45.918Z,10.57
2023-04-10T08:19:13.157Z,10.60
2023-04-10T08:21:40.486Z,10.33
2023-04-10T08:24:07.768Z,10.47
2023-04-10T08:26:34.994Z,9.30
2023-04-10T08:29:02.241Z,9.60
2023-04-10T08:31:29.973Z,9.80
2023-04-10T08:33:57.702Z,9.70
2023-04-10T08:36:27.167Z,9.97
2023-04-10T08:38:54.418Z,10.10
2023-04-10T08:41:21.624Z,10.13
2023-04-10T08:43:50.046Z,10.93
2023-04-10T08:46:17.482Z,10.80
2023-04-10T08:48:47.628Z,10.97
2023-04-10T08:51:20.042Z,10.50
2023-04-10T08:53:51.246Z,10.57
2023-04-10T08:56:18.902Z,10.67
2023-04-10T08:58:46.258Z,10.90
2023-04-10T09:01:13.558Z,10.73
2023-04-10T09:03:40.997Z,10.40
2023-04-10T09:06:08.463Z,10.10
2023-04-10T09:08:35.877Z,10.33
2023-04-10T09:11:03.058Z,9.93
2023-04-10T09:13:37.974Z,10.40
2023-04-10T09:16:05.375Z,9.60
2023-04-10T09:18:44.565Z,9.17
2023-04-10T09:21:12.879Z,9.67
2023-04-10T09:23:40.073Z,9.63
2023-04-10T09:26:23.515Z,8.63
2023-04-10T09:29:03.664Z,8.30
2023-04-10T09:31:32.333Z,7.97
2023-04-10T09:34:08.546Z,8.10
2023-04-10T09:36:37.265Z,8.13
2023-04-10T09:39:05.933Z,8.07
2023-04-10T09:41:33.135Z,7.97
2023-04-10T09:44:10.263Z,7.93
2023-04-10T09:46:37.497Z,7.53
2023-04-10T09:49:05.389Z,6.27
2023-04-10T09:51:34.044Z,7.30
2023-04-10T09:54:01.696Z,6.33
2023-04-10T09:56:29.824Z,6.33
2023-04-10T09:59:00.680Z,6.40
2023-04-10T10:01:28.767Z,6.20
2023-04-10T10:03:56.450Z,6.87
2023-04-10T10:06:23.841Z,6.30
2023-04-10T10:08:51.700Z,6.77
2023-04-10T10:11:22.661Z,7.70
2023-04-10T10:13:57.250Z,8.07
2023-04-10T10:16:30.689Z,7.17
2023-04-10T10:19:02.175Z,4.93
2023-04-10T10:21:30.181Z,5.43
2023-04-10T10:23:59.529Z,6.03
2023-04-10T10:26:27.003Z,7.07
2023-04-10T10:28:54.666Z,6.70
2023-04-10T10:31:23.645Z,6.50
2023-04-10T10:33:53.036Z,6.23
2023-04-10T10:36:20.821Z,7.23
2023-04-10T10:39:14.708Z,6.73
2023-04-10T10:41:45.516Z,6.20
2023-04-10T10:44:16.829Z,6.87
2023-04-10T10:46:51.941Z,6.77
2023-04-10T10:49:19.342Z,7.17
2023-04-10T10:51:49.718Z,7.43
2023-04-10T10:54:30.169Z,6.40
2023-04-10T10:56:57.397Z,6.77
2023-04-10T10:59:43.126Z,6.73
2023-04-10T11:02:13.645Z,6.83
2023-04-10T11:04:44.927Z,6.93
2023-04-10T11:07:12.213Z,6.70
2023-04-10T11:09:46.918Z,6.37
2023-04-10T11:12:14.066Z,6.47
2023-04-10T11:14:45.828Z,6.37
2023-04-10T11:17:13.198Z,6.00
2023-04-10T11:19:59.952Z,6.37
2023-04-10T11:22:27.858Z,6.23
2023-04-10T11:24:57.574Z,6.30
2023-04-10T11:27:41.659Z,6.47
2023-04-10T11:30:29.112Z,6.70
2023-04-10T11:32:56.577Z,7.23
2023-04-10T11:35:23.974Z,7.20
2023-04-10T11:37:51.786Z,7.30
2023-04-10T11:40:19.046Z,7.70
2023-04-10T11:42:47.861Z,7.00
2023-04-10T11:45:27.836Z,7.47
2023-04-10T11:47:55.350Z,6.90
2023-04-10T11:50:22.632Z,8.17
2023-04-10T11:52:54.024Z,8.23
2023-04-10T11:55:37.795Z,7.33
2023-04-10T11:58:04.955Z,8.10
2023-04-10T12:00:32.125Z,8.03
2023-04-10T12:02:59.425Z,6.83
2023-04-10T12:05:26.655Z,6.83
2023-04-10T12:07:53.890Z,7.00
2023-04-10T12:10:21.479Z,6.57
2023-04-10T12:12:48.632Z,6.50
2023-04-10T12:15:28.372Z,6.90
2023-04-10T12:17:56.344Z,7.23
2023-04-10T12:20:26.625Z,7.07
2023-04-10T12:22:56.313Z,7.73
2023-04-10T12:25:23.508Z,7.10
2023-04-10T12:27:51.647Z,7.43
2023-04-10T12:30:18.910Z,7.23
2023-04-10T12:32:52.669Z,7.83
2023-04-10T12:35:19.924Z,7.80
2023-04-10T12:37:51.121Z,7.37
2023-04-10T12:40:18.340Z,7.03
2023-04-10T12:42:45.516Z,6.87
2023-04-10T12:45:14.491Z,6.83
2023-04-10T12:47:54.480Z,6.20
2023-04-10T12:50:22.202Z,6.10
2023-04-10T12:53:07.483Z,5.60
2023-04-10T12:55:34.731Z,5.83
2023-04-10T12:58:20.214Z,4.90
2023-04-10T13:00:48.049Z,5.63
2023-04-10T13:03:15.961Z,5.50
2023-04-10T13:05:43.282Z,5.50
2023-04-10T13:08:10.441Z,5.90
2023-04-10T13:10:38.381Z,5.13
2023-04-10T13:13:07.169Z,5.23
2023-04-10T13:15:34.893Z,5.07
2023-04-10T13:18:03.710Z,5.20
2023-04-10T13:20:33.063Z,5.43
2023-04-10T13:23:00.210Z,5.80
2023-04-10T13:25:27.651Z,5.30
2023-04-10T13:27:54.809Z,5.80
2023-04-10T13:30:21.936Z,5.40
2023-04-10T13:32:49.188Z,5.47
2023-04-10T13:35:16.507Z,5.07
2023-04-10T13:37:43.709Z,5.07
2023-04-10T13:40:11.051Z,5.07
2023-04-10T13:42:40.539Z,5.10
2023-04-10T13:45:09.404Z,4.50
2023-04-10T13:47:36.689Z,5.33
2023-04-10T13:50:03.961Z,4.70
2023-04-10T13:52:31.159Z,4.60
2023-04-10T13:54:58.381Z,4.53
2023-04-10T13:57:25.676Z,3.83
2023-04-10T13:59:52.788Z,3.90
2023-04-10T14:02:20.218Z,4.13
2023-04-10T14:04:47.604Z,4.40
2023-04-10T14:07:14.805Z,3.70
2023-04-10T14:09:41.974Z,3.67
2023-04-10T14:12:09.163Z,4.00
2023-04-10T14:14:36.373Z,4.23
2023-04-10T14:17:03.546Z,3.80
2023-04-10T14:19:31.068Z,3.73
2023-04-10T14:21:58.167Z,4.37
2023-04-10T14:24:25.465Z,3.63
2023-04-10T14:26:54.168Z,3.53
2023-04-10T14:29:25.461Z,3.13
2023-04-10T14:32:00.532Z,3.50
2023-04-10T14:34:27.737Z,3.50
2023-04-10T14:36:55.949Z,3.57
2023-04-10T14:39:24.588Z,3.83
2023-04-10T14:41:52.047Z,3.30
2023-04-10T14:44:19.329Z,3.43
2023-04-10T14:46:46.516Z,3.60
2023-04-10T14:49:15.076Z,3.60
2023-04-10T14:51:45.520Z,3.40
2023-04-10T14:54:12.753Z,4.10
2023-04-10T14:56:40.112Z,3.77
2023-04-10T14:59:07.567Z,3.40
2023-04-10T15:01:38.577Z,3.87
2023-04-10T15:04:07.232Z,3.73
2023-04-10T15:06:34.736Z,3.97
2023-04-10T15:09:01.848Z,3.87
2023-04-10T15:11:28.937Z,3.90
2023-04-10T15:13:56.750Z,4.20
2023-04-10T15:16:24.028Z,4.53
2023-04-10T15:18:51.245Z,4.03
2023-04-10T15:21:18.492Z,4.27
2023-04-10T15:23:45.638Z,4.33
2023-04-10T15:26:14.004Z,4.27
2023-04-10T15:28:41.512Z,4.50
2023-04-10T15:31:08.756Z,4.30
2023-04-10T15:33:37.929Z,4.40
2023-04-10T15:36:05.650Z,3.93
2023-04-10T15:38:34.690Z,4.60
2023-04-10T15:41:02.122Z,4.73
2023-04-10T15:43:29.280Z,5.20
2023-04-10T15:46:00.434Z,4.50
2023-04-10T15:48:27.699Z,4.93
2023-04-10T15:50:54.848Z,4.80
2023-04-10T15:53:22.041Z,4.70
2023-04-10T15:55:49.183Z,4.60
2023-04-10T15:58:16.305Z,4.90
2023-04-10T16:00:43.440Z,4.50
2023-04-10T16:03:10.909Z,4.27
2023-04-10T16:05:38.248Z,4.50
2023-04-10T16:08:05.495Z,4.47
2023-04-10T16:10:32.660Z,4.60
2023-04-10T16:13:04.232Z,4.40
2023-04-10T16:15:34.199Z,4.10
2023-04-10T16:18:01.491Z,4.90
2023-04-10T16:20:28.729Z,4.63
2023-04-10T16:22:55.924Z,4.37
2023-04-10T16:25:23.121Z,4.33
2023-04-10T16:27:53.068Z,4.87
2023-04-10T16:30:20.264Z,4.50
2023-04-10T16:32:47.767Z,4.63
2023-04-10T16:35:15.164Z,4.30
2023-04-10T16:37:42.293Z,4.37
2023-04-10T16:40:09.670Z,4.40
2023-04-10T16:42:36.848Z,4.80
2023-04-10T16:45:04.080Z,4.20
2023-04-10T16:47:31.255Z,4.53
2023-04-10T16:49:58.438Z,4.33
2023-04-10T16:52:25.651Z,4.17
2023-04-10T16:54:53.028Z,4.40
2023-04-10T16:57:20.163Z,4.40
2023-04-10T16:59:47.321Z,4.60
2023-04-10T17:02:14.503Z,4.67
2023-04-10T17:04:42.888Z,4.70
2023-04-10T17:07:10.240Z,4.50
2023-04-10T17:09:37.877Z,4.10
2023-04-10T17:12:05.054Z,4.30
2023-04-10T17:14:32.267Z,4.40
2023-04-10T17:16:59.533Z,4.10
2023-04-10T17:19:26.755Z,4.57
2023-04-10T17:21:54.448Z,4.77
2023-04-10T17:24:21.569Z,3.80
2023-04-10T17:26:48.843Z,4.33
2023-04-10T17:29:15.952Z,4.30
2023-04-10T17:31:43.169Z,4.93
2023-04-10T17:34:10.365Z,4.57
2023-04-10T17:36:37.477Z,4.40
2023-04-10T17:39:05.622Z,4.27
2023-04-10T17:41:32.723Z,4.43
2023-04-10T17:43:59.873Z,4.30
2023-04-10T17:46:27.034Z,4.60
2023-04-10T17:48:59.952Z,4.37
2023-04-10T17:51:27.816Z,4.40
2023-04-10T17:53:55.183Z,4.67
2023-04-10T17:56:22.363Z,3.97
2023-04-10T17:58:49.674Z,4.07
2023-04-10T18:01:29.516Z,4.53
2023-04-10T18:03:57.074Z,4.30
2023-04-10T18:06:24.396Z,4.20
2023-04-10T18:08:51.613Z,4.27
2023-04-10T18:11:19.018Z,4.10
2023-04-10T18:13:48.253Z,4.40
2023-04-10T18:16:15.661Z,3.90
2023-04-10T18:18:42.938Z,4.60
2023-04-10T18:21:11.138Z,4.60
2023-04-10T18:23:39.454Z,5.17
2023-04-10T18:26:06.740Z,4.93
2023-04-10T18:28:34.333Z,5.57
2023-04-10T18:31:01.705Z,5.67
2023-04-10T18:33:29.013Z,6.03
2023-04-10T18:35:59.657Z,5.87
2023-04-10T18:38:27.077Z,5.80
2023-04-10T18:40:57.972Z,6.30
2023-04-10T18:43:25.788Z,5.53
2023-04-10T18:45:52.969Z,6.43
2023-04-10T18:48:20.369Z,6.13
2023-04-10T18:50:47.542Z,5.90
2023-04-10T18:53:14.755Z,6.60
2023-04-10T18:55:41.876Z,6.80
2023-04-10T18:58:09.015Z,6.40
2023-04-10T19:00:36.263Z,6.30
2023-04-10T19:03:03.692Z,6.27
2023-04-10T19:05:32.660Z,6.60
2023-04-10T19:08:04.053Z,6.53
2023-04-10T19:10:32.320Z,6.60
2023-04-10T19:12:59.527Z,6.53
2023-04-10T19:15:26.689Z,6.37
2023-04-10T19:17:54.162Z,6.60
2023-04-10T19:20:51.084Z,6.50
2023-04-10T19:23:09.680Z,6.90
2023-04-10T19:25:36.861Z,7.10
2023-04-10T19:28:04.783Z,6.50
2023-04-10T19:30:31.938Z,7.17
2023-04-10T19:32:59.206Z,6.93
2023-04-10T19:35:26.446Z,7.33
2023-04-10T19:37:56.802Z,6.77
2023-04-10T19:40:24.047Z,7.07
2023-04-10T19:42:51.143Z,7.47
2023-04-10T19:45:18.307Z,6.90
2023-04-10T19:47:45.534Z,7.00
2023-04-10T19:50:12.808Z,7.17
2023-04-10T19:52:39.972Z,6.97
2023-04-10T19:55:07.245Z,6.80
2023-04-10T19:57:34.388Z,6.63
2023-04-10T20:00:01.609Z,6.43
2023-04-10T20:02:28.973Z,6.30
2023-04-10T20:04:56.219Z,6.17
2023-04-10T20:07:23.536Z,5.90
2023-04-10T20:09:50.740Z,5.53
2023-04-10T20:12:17.897Z,6.57
2023-04-10T20:14:45.182Z,6.07
2023-04-10T20:17:12.759Z,5.97
2023-04-10T20:19:40.346Z,6.10
2023-04-10T20:22:08.901Z,5.87
2023-04-10T20:24:36.069Z,5.93
2023-04-10T20:27:03.381Z,6.17
2023-04-10T20:29:30.578Z,6.03
2023-04-10T20:31:57.849Z,6.00
2023-04-10T20:34:25.032Z,5.73
2023-04-10T20:36:52.226Z,5.77
2023-04-10T20:39:19.505Z,6.47
2023-04-10T20:41:46.646Z,5.70
2023-04-10T20:44:13.783Z,6.13
2023-04-10T20:46:41.063Z,5.87
2023-04-10T20:49:10.233Z,5.97
2023-04-10T20:51:38.417Z,5.83
2023-04-10T20:54:07.039Z,5.30
2023-04-10T20:56:42.840Z,5.80
2023-04-10T20:59:11.260Z,5.97
2023-04-10T21:01:38.817Z,4.97
2023-04-10T21:04:06.421Z,5.43
2023-04-10T21:06:33.961Z,5.40
2023-04-10T21:09:01.400Z,6.00
2023-04-10T21:11:28.719Z,5.03
2023-04-10T21:13:55.967Z,5.57
2023-04-10T21:16:23.219Z,5.10
2023-04-10T21:18:50.585Z,5.47
2023-04-10T21:21:17.689Z,4.83
2023-04-10T21:23:44.946Z,5.40
2023-04-10T21:26:12.059Z,5.50
2023-04-10T21:28:39.214Z,5.50
2023-04-10T21:31:06.369Z,4.90
2023-04-10T21:33:33.488Z,5.17
2023-04-10T21:36:00.966Z,4.90
2023-04-10T21:38:28.141Z,5.47
2023-04-10T21:40:55.556Z,5.73
2023-04-10T21:43:22.877Z,5.27
2023-04-10T21:45:50.338Z,5.03
2023-04-10T21:48:19.539Z,4.73
2023-04-10T21:50:46.953Z,5.00
2023-04-10T21:53:14.137Z,4.97
2023-04-10T21:55:41.328Z,4.37
2023-04-10T21:58:08.456Z,4.90
2023-04-10T22:00:35.653Z,5.17
2023-04-10T22:03:02.990Z,4.70
2023-04-10T22:05:31.754Z,4.90
2023-04-10T22:07:58.985Z,5.00
2023-04-10T22:10:26.116Z,4.77
2023-04-10T22:12:53.250Z,4.73
2023-04-10T22:15:20.539Z,4.70
2023-04-10T22:17:47.768Z,5.00
2023-04-10T22:20:14.940Z,4.80
2023-04-10T22:22:42.134Z,4.70
2023-04-10T22:25:09.377Z,5.27
2023-04-10T22:27:36.478Z,5.10
2023-04-10T22:30:04.622Z,5.00
2023-04-10T22:32:32.462Z,4.67
2023-04-10T22:35:00.086Z,5.30
2023-04-10T22:37:27.604Z,4.90
2023-04-10T22:39:56.201Z,4.77
2023-04-10T22:42:23.659Z,4.80
2023-04-10T22:44:50.977Z,4.60
2023-04-10T22:47:18.303Z,4.90
2023-04-10T22:49:46.698Z,5.50
2023-04-10T22:52:13.978Z,5.50
2023-04-10T22:54:41.108Z,5.13
2023-04-10T22:57:08.352Z,4.97
2023-04-10T22:59:38.447Z,5.20
2023-04-10T23:02:05.816Z,4.83
2023-04-10T23:04:33.118Z,5.23
2023-04-10T23:07:00.402Z,5.23
2023-04-10T23:09:27.656Z,4.97
2023-04-10T23:11:54.809Z,5.03
2023-04-10T23:14:21.958Z,4.83
2023-04-10T23:16:49.606Z,5.30
2023-04-10T23:19:16.955Z,5.10
2023-04-10T23:21:44.090Z,5.00
2023-04-10T23:24:11.256Z,5.40
2023-04-10T23:26:38.375Z,5.10
2023-04-10T23:29:05.604Z,5.20
2023-04-10T23:31:32.726Z,5.03
2023-04-10T23:34:00.039Z,5.30
2023-04-10T23:36:27.170Z,5.00
2023-04-10T23:38:54.588Z,5.10
2023-04-10T23:41:22.271Z,4.67
2023-04-10T23:43:49.550Z,4.93
2023-04-10T23:46:16.760Z,4.93
2023-04-10T23:48:43.902Z,4.83
2023-04-10T23:51:11.056Z,4.67
2023-04-10T23:53:38.236Z,4.70
2023-04-10T23:56:07.798Z,4.33
2023-04-10T23:58:34.933Z,4.30
